Portada
METAR-TAF:

METAR-TAF

Aeroports :

Vitòria, Espanya

latitud: 42-53N, longitud: 002-43W, altitud: 513 m

Observació

L'informe es va fer fa 41 minuts, a les 17:30 UTC
Vent 9 kt del Nord
Temperatura 15°C
Humitat 88%
Pressió 1020 hPa
Visibilitat: 8000 m
Núvols disperses a una alçada de 1500 ft
Núvols disperses a una alçada de 3500 ft

METAR: LEVT 191730Z 01009KT 8000 SCT015 SCT035 15/13 Q1020

Hora: 20:11 (18:11 UTC)

Pronòstic

L'informe es va fer fa 1 hora i 11 minuts, a les 17:00 UTC
Pronòstic vàlid del 19 a les 18 UTC al 20 a les 18 UTC
Vent 9 kt del Nord
Visibilitat 10 km o més
Escasses núvols a una alçada de 1500 ft
Cel ennuvolat a una alçada de 3000 ft
Probabilitat 30% :
Temporalment
l' 19 a les 18 UTC al 20 a les 12 UTC
pluja
Temporalment
l' 19 a les 20 UTC al 20 a les 09 UTC
Cel ennuvolat a una alçada de 1000 ft

TAF: LEVT 191700Z 1918/2018 01009KT 9999 FEW015 BKN030 TX21/2014Z TN10/2006Z PROB30 TEMPO 1918/2012 RA TEMPO 1920/2009 BKN010

Observacions i pronòstics meteorològics de més de 4000 aeroports (METAR i TAF).

Les estacions disponibles són els punts grocs i vermells al mapa.

Posi el ratolí al punt desitjat per veure el nom de l'estació.

Feu clic per veure les observacions i els pronòstics meteorològics.

Per canviar el mapa: feu clic els botons verds amb una creu de color negre per apropar; al botó verd amb un guió per allunyar la imatge; o en les fletxes verdes per a mapes adjacents.


METAR-TAF: